(°C)
25°
27°
28°
28°
29°
29°
29°
(°C)
25°
27°
28°
28°
29°
29°
29°
ZJZ
ZJZ
ZJZ
Z
Z
Z
Z
(km/h)
14-26
15-27
15-27
15-27
15-26
14-24
13-23
(mm)
0
0
0
0
0
0
0
(%)
30
24
14
8
19
14
14

Podizanje Sunca

/ 56.2°
sun-icon
UV 4
05:06
20:57
Opadajući mesec (235°)
23:07
10:06

METAR za 52.53°S 31.02°I (UMGG)

Vreme Uslovi Temperatura/
Tačka rose
Vetar Vidljivost Prognoza Oblaci Pritisak Promena Neobrađeno
VFR 26°C / 19°C 230º 10kt >10km - Few Clouds 2600ft 1013 No Significant change UMGG 280930Z 23005MPS 9999 FEW026 SCT100 26/19 Q1013 R28/D NOSIG
VFR 26°C / 19°C 260º 8kt >10km - Few Clouds 2600ft 1013 No Significant change UMGG 280900Z 26004MPS 9999 FEW026 SCT100 26/19 Q1013 R28/CLRD// NOSIG
VFR 23°C / 19°C 270º 8kt 9000m - Few Clouds 2600ft 1013 No Significant change. Runway 28: Damp, 51-100% contamination with <1mm, friction coefficient 0.55. UMGG 280830Z 27004MPS 9000 FEW026 BKN100 23/19 Q1013 R28/190055 NOSIG
VFR 23°C / 19°C 270º 8kt 9000m - Few Clouds 2800ft 1013 No Significant change. Runway 28: Damp, 51-100% contamination with <1mm, friction coefficient 0.55. UMGG 280800Z 27004MPS 9000 FEW028 BKN100 23/19 Q1013 R28/190055 NOSIG
MVFR 23°C / 19°C 250º 10kt 8000m - Few Clouds 1300ft 1014 No Significant change. Runway 28: Damp, 51-100% contamination with <1mm, friction coefficient 0.55. UMGG 280730Z 25005MPS 8000 FEW013 SCT028 BKN084 23/19 Q1014 R28/190055 NOSIG
VFR 23°C / 19°C 270º 12kt 9000m - Scattered Clouds 1300ft 1014 No Significant change. Runway 28: Damp, 51-100% contamination with <1mm, friction coefficient 0.55. UMGG 280700Z 27006MPS 9000 SCT013 BKN084 23/19 Q1014 R28/190055 NOSIG
VFR 22°C / 19°C 250º 10kt 9000m - Scattered Clouds 4300ft 1014 No Significant change. Runway 28: Damp, 51-100% contamination with <1mm, friction coefficient 0.55. UMGG 280630Z 25005MPS 9000 SCT043 BKN100 22/19 Q1014 R28/190055 NOSIG
VFR 22°C / 19°C 230º 8kt 9000m - Scattered Clouds 4300ft 1013 No Significant change. Runway 28: Damp, 51-100% contamination with <1mm, friction coefficient 0.55. UMGG 280600Z 23004MPS 9000 SCT043CB BKN084 22/19 Q1013 R28/190055 NOSIG
MVFR 20°C / 19°C 180º 8kt 8000m - Few Clouds 4300ft 1013 No Significant change. Runway 28: Damp, 51-100% contamination with <1mm, friction coefficient 0.55. UMGG 280530Z 18004MPS 8000 FEW043CB BKN084 20/19 Q1013 R28/190055 NOSIG
VFR 20°C / 19°C 190º 6kt >10km - Broken Clouds 4300ft 1014 No Significant change. Runway 28: Damp, 51-100% contamination with <1mm, friction coefficient 0.55. UMGG 280500Z 19003MPS 9999 BKN043CB BKN100 20/19 Q1014 R28/190055 NOSIG
VFR 20°C / 19°C 200º 6kt 9000m - Broken Clouds 4300ft 1014 No Significant change UMGG 280430Z 20003MPS 9000 BKN043CB BKN100 20/19 Q1014 R28/D NOSIG
VFR 20°C / 19°C 180º 4kt 9000m - Broken Clouds 5100ft 1014 No Significant change UMGG 280400Z 18002MPS 9000 BKN051CB BKN100 20/19 Q1014 R28/CLRD// NOSIG
VFR 19°C / 18°C variable 2kt 9000m - Broken Clouds 5300ft 1014 No Significant change UMGG 280330Z VRB01MPS 9000 BKN053CB BKN100 19/18 Q1014 R28/CLRD// NOSIG
MVFR 19°C / 18°C 170º 4kt 6000m - Scattered Clouds 5300ft 1014 No Significant change UMGG 280300Z 17002MPS 6000 SCT053CB BKN100 19/18 Q1014 R28/CLRD// NOSIG
MVFR 20°C / 18°C 160º 8kt 7000m - Scattered Clouds 5300ft 1014 No Significant change UMGG 280200Z 16004MPS 7000 SCT053CB BKN100 20/18 Q1014 R28/CLRD// NOSIG
MVFR 20°C / 19°C 150º 8kt 7000m - Broken Clouds 5300ft 1014 No Significant change UMGG 280100Z 15004MPS 7000 BKN053CB BKN100 20/19 Q1014 R28/D NOSIG
MVFR 20°C / 19°C 140º 6kt 8000m Light Showers Rain 3.00mm precipitation Vertical Visibility of 0ft. 1015 No Significant change UMGG 280036Z 14003MPS 8000 -SHRA BKN053CB BKN100 20/19 Q1015 RETS R28/D NOSIG
IFR 20°C / 19°C 200º 8kt 4800m Light Thunderstorm Rain 3.00mm precipitation Vertical Visibility of 0ft. 1015 Temporary: Visibility 1200. Showers Rain . UMGG 280000Z 20004MPS 4800 -TSRA BKN052CB BKN100 20/19 Q1015 R28/CLRD// TEMPO 1200 SHRA
MVFR 20°C / 19°C variable 2kt 8000m - Broken Clouds 5300ft 1015 Temporary: Visibility 1200. Thunderstorm Rain . UMGG 272300Z VRB01MPS 8000 BKN053CB BKN100 20/19 Q1015 R28/CLRD// TEMPO 1200 TSRA
MVFR 21°C / 20°C variable 2kt 8000m - Broken Clouds 5200ft 1015 Temporary: Visibility 1200. Thunderstorm Rain . UMGG 272220Z VRB01MPS 8000 BKN052CB BKN100 21/20 Q1015 RETS R28/D TEMPO 1200 TSRA
MVFR 21°C / 20°C 310º 4kt 7000m Light Thunderstorm Rain 3.00mm precipitation Vertical Visibility of 0ft. 1015 Temporary: Visibility 1200. Showers Rain . UMGG 272200Z 31002MPS 7000 -TSRA BKN044CB OVC100 21/20 Q1015 R28/D TEMPO 1200 SHRA
MVFR 21°C / 19°C 210º 6kt 8000m Light Thunderstorm Rain 3.00mm precipitation Vertical Visibility of 0ft. 1015 Temporary: Visibility 1200. Showers Rain . UMGG 272149Z 21003MPS 8000 -TSRA BKN044CB OVC100 21/19 Q1015 R28/CLRD// TEMPO 1200 SHRA
LIFR 21°C / 19°C 200º 8kt 1500m Showers Rain 3.00mm precipitation Vertical Visibility of 0ft. 1015 Temporary: Visibility 1200. Thunderstorm Rain . UMGG 272129Z 20004MPS 1500 SHRA BKN044CB OVC100 21/19 Q1015 R28/CLRD// TEMPO 1200 TSRA
MVFR 21°C / 19°C 120º 4kt 7000m Light Showers Rain 3.00mm precipitation Vertical Visibility of 0ft. 1015 Temporary: Visibility 2000. Thunderstorm Rain . UMGG 272100Z 12002MPS 7000 -SHRA BKN053CB OVC100 21/19 Q1015 RETS R28/CLRD// TEMPO 2000 TSRA

VFR

26°C / 19°C

[Više]
Vetar 230º 10kt
Vidljivost >10km
Prognoza -
Oblaci Few Clouds 2600ft
Pritisak 1013
Promena No Significant change
Neobrađeno UMGG 280930Z 23005MPS 9999 FEW026 SCT100 26/19 Q1013 R28/D NOSIG

VFR

26°C / 19°C

[Više]
Vetar 260º 8kt
Vidljivost >10km
Prognoza -
Oblaci Few Clouds 2600ft
Pritisak 1013
Promena No Significant change
Neobrađeno UMGG 280900Z 26004MPS 9999 FEW026 SCT100 26/19 Q1013 R28/CLRD// NOSIG

VFR

23°C / 19°C

[Više]
Vetar 270º 8kt
Vidljivost 9000m
Prognoza -
Oblaci Few Clouds 2600ft
Pritisak 1013
Promena No Significant change. Runway 28: Damp, 51-100% contamination with <1mm, friction coefficient 0.55.
Neobrađeno UMGG 280830Z 27004MPS 9000 FEW026 BKN100 23/19 Q1013 R28/190055 NOSIG

VFR

23°C / 19°C

[Više]
Vetar 270º 8kt
Vidljivost 9000m
Prognoza -
Oblaci Few Clouds 2800ft
Pritisak 1013
Promena No Significant change. Runway 28: Damp, 51-100% contamination with <1mm, friction coefficient 0.55.
Neobrađeno UMGG 280800Z 27004MPS 9000 FEW028 BKN100 23/19 Q1013 R28/190055 NOSIG

MVFR

23°C / 19°C

[Više]
Vetar 250º 10kt
Vidljivost 8000m
Prognoza -
Oblaci Few Clouds 1300ft
Pritisak 1014
Promena No Significant change. Runway 28: Damp, 51-100% contamination with <1mm, friction coefficient 0.55.
Neobrađeno UMGG 280730Z 25005MPS 8000 FEW013 SCT028 BKN084 23/19 Q1014 R28/190055 NOSIG

VFR

23°C / 19°C

[Više]
Vetar 270º 12kt
Vidljivost 9000m
Prognoza -
Oblaci Scattered Clouds 1300ft
Pritisak 1014
Promena No Significant change. Runway 28: Damp, 51-100% contamination with <1mm, friction coefficient 0.55.
Neobrađeno UMGG 280700Z 27006MPS 9000 SCT013 BKN084 23/19 Q1014 R28/190055 NOSIG

VFR

22°C / 19°C

[Više]
Vetar 250º 10kt
Vidljivost 9000m
Prognoza -
Oblaci Scattered Clouds 4300ft
Pritisak 1014
Promena No Significant change. Runway 28: Damp, 51-100% contamination with <1mm, friction coefficient 0.55.
Neobrađeno UMGG 280630Z 25005MPS 9000 SCT043 BKN100 22/19 Q1014 R28/190055 NOSIG

VFR

22°C / 19°C

[Više]
Vetar 230º 8kt
Vidljivost 9000m
Prognoza -
Oblaci Scattered Clouds 4300ft
Pritisak 1013
Promena No Significant change. Runway 28: Damp, 51-100% contamination with <1mm, friction coefficient 0.55.
Neobrađeno UMGG 280600Z 23004MPS 9000 SCT043CB BKN084 22/19 Q1013 R28/190055 NOSIG

MVFR

20°C / 19°C

[Više]
Vetar 180º 8kt
Vidljivost 8000m
Prognoza -
Oblaci Few Clouds 4300ft
Pritisak 1013
Promena No Significant change. Runway 28: Damp, 51-100% contamination with <1mm, friction coefficient 0.55.
Neobrađeno UMGG 280530Z 18004MPS 8000 FEW043CB BKN084 20/19 Q1013 R28/190055 NOSIG

VFR

20°C / 19°C

[Više]
Vetar 190º 6kt
Vidljivost >10km
Prognoza -
Oblaci Broken Clouds 4300ft
Pritisak 1014
Promena No Significant change. Runway 28: Damp, 51-100% contamination with <1mm, friction coefficient 0.55.
Neobrađeno UMGG 280500Z 19003MPS 9999 BKN043CB BKN100 20/19 Q1014 R28/190055 NOSIG

VFR

20°C / 19°C

[Više]
Vetar 200º 6kt
Vidljivost 9000m
Prognoza -
Oblaci Broken Clouds 4300ft
Pritisak 1014
Promena No Significant change
Neobrađeno UMGG 280430Z 20003MPS 9000 BKN043CB BKN100 20/19 Q1014 R28/D NOSIG

VFR

20°C / 19°C

[Više]
Vetar 180º 4kt
Vidljivost 9000m
Prognoza -
Oblaci Broken Clouds 5100ft
Pritisak 1014
Promena No Significant change
Neobrađeno UMGG 280400Z 18002MPS 9000 BKN051CB BKN100 20/19 Q1014 R28/CLRD// NOSIG

VFR

19°C / 18°C

[Više]
Vetar variable 2kt
Vidljivost 9000m
Prognoza -
Oblaci Broken Clouds 5300ft
Pritisak 1014
Promena No Significant change
Neobrađeno UMGG 280330Z VRB01MPS 9000 BKN053CB BKN100 19/18 Q1014 R28/CLRD// NOSIG

MVFR

19°C / 18°C

[Više]
Vetar 170º 4kt
Vidljivost 6000m
Prognoza -
Oblaci Scattered Clouds 5300ft
Pritisak 1014
Promena No Significant change
Neobrađeno UMGG 280300Z 17002MPS 6000 SCT053CB BKN100 19/18 Q1014 R28/CLRD// NOSIG

MVFR

20°C / 18°C

[Više]
Vetar 160º 8kt
Vidljivost 7000m
Prognoza -
Oblaci Scattered Clouds 5300ft
Pritisak 1014
Promena No Significant change
Neobrađeno UMGG 280200Z 16004MPS 7000 SCT053CB BKN100 20/18 Q1014 R28/CLRD// NOSIG

MVFR

20°C / 19°C

[Više]
Vetar 150º 8kt
Vidljivost 7000m
Prognoza -
Oblaci Broken Clouds 5300ft
Pritisak 1014
Promena No Significant change
Neobrađeno UMGG 280100Z 15004MPS 7000 BKN053CB BKN100 20/19 Q1014 R28/D NOSIG

MVFR

20°C / 19°C

[Više]
Vetar 140º 6kt
Vidljivost 8000m
Prognoza Light Showers Rain 3.00mm precipitation
Oblaci Vertical Visibility of 0ft.
Pritisak 1015
Promena No Significant change
Neobrađeno UMGG 280036Z 14003MPS 8000 -SHRA BKN053CB BKN100 20/19 Q1015 RETS R28/D NOSIG

IFR

20°C / 19°C

[Više]
Vetar 200º 8kt
Vidljivost 4800m
Prognoza Light Thunderstorm Rain 3.00mm precipitation
Oblaci Vertical Visibility of 0ft.
Pritisak 1015
Promena Temporary: Visibility 1200. Showers Rain .
Neobrađeno UMGG 280000Z 20004MPS 4800 -TSRA BKN052CB BKN100 20/19 Q1015 R28/CLRD// TEMPO 1200 SHRA

MVFR

20°C / 19°C

[Više]
Vetar variable 2kt
Vidljivost 8000m
Prognoza -
Oblaci Broken Clouds 5300ft
Pritisak 1015
Promena Temporary: Visibility 1200. Thunderstorm Rain .
Neobrađeno UMGG 272300Z VRB01MPS 8000 BKN053CB BKN100 20/19 Q1015 R28/CLRD// TEMPO 1200 TSRA

MVFR

21°C / 20°C

[Više]
Vetar variable 2kt
Vidljivost 8000m
Prognoza -
Oblaci Broken Clouds 5200ft
Pritisak 1015
Promena Temporary: Visibility 1200. Thunderstorm Rain .
Neobrađeno UMGG 272220Z VRB01MPS 8000 BKN052CB BKN100 21/20 Q1015 RETS R28/D TEMPO 1200 TSRA

MVFR

21°C / 20°C

[Više]
Vetar 310º 4kt
Vidljivost 7000m
Prognoza Light Thunderstorm Rain 3.00mm precipitation
Oblaci Vertical Visibility of 0ft.
Pritisak 1015
Promena Temporary: Visibility 1200. Showers Rain .
Neobrađeno UMGG 272200Z 31002MPS 7000 -TSRA BKN044CB OVC100 21/20 Q1015 R28/D TEMPO 1200 SHRA

MVFR

21°C / 19°C

[Više]
Vetar 210º 6kt
Vidljivost 8000m
Prognoza Light Thunderstorm Rain 3.00mm precipitation
Oblaci Vertical Visibility of 0ft.
Pritisak 1015
Promena Temporary: Visibility 1200. Showers Rain .
Neobrađeno UMGG 272149Z 21003MPS 8000 -TSRA BKN044CB OVC100 21/19 Q1015 R28/CLRD// TEMPO 1200 SHRA

LIFR

21°C / 19°C

[Više]
Vetar 200º 8kt
Vidljivost 1500m
Prognoza Showers Rain 3.00mm precipitation
Oblaci Vertical Visibility of 0ft.
Pritisak 1015
Promena Temporary: Visibility 1200. Thunderstorm Rain .
Neobrađeno UMGG 272129Z 20004MPS 1500 SHRA BKN044CB OVC100 21/19 Q1015 R28/CLRD// TEMPO 1200 TSRA

MVFR

21°C / 19°C

[Više]
Vetar 120º 4kt
Vidljivost 7000m
Prognoza Light Showers Rain 3.00mm precipitation
Oblaci Vertical Visibility of 0ft.
Pritisak 1015
Promena Temporary: Visibility 2000. Thunderstorm Rain .
Neobrađeno UMGG 272100Z 12002MPS 7000 -SHRA BKN053CB OVC100 21/19 Q1015 RETS R28/CLRD// TEMPO 2000 TSRA

TAF za 52.53°S 31.02°I (UMGG)

From till


Maximum Temperature 28ºC on . Minimum Temperature 19ºC on .
From till Wind 250º 12kt. Visibility 10km or more. Broken Clouds 3000ft.
Temporarly from till Wind variable 27kt. Visibility 2000m. Thunderstorm Rain Squalls . Broken Clouds 600ft. Broken Clouds 3500ft.
Becoming from till Wind 270º 10kt. Visibility 5000m. Mist . Broken Clouds 3000ft.
Temporarly from till Wind 250º 8kt. Visibility 1200m. Broken Clouds 500ft.

Neobrađeno: TAF UMGG 280457Z 2806/2906 25006MPS 9999 BKN030 TX28/2812Z TN19/2902Z TEMPO 2806/2818 VRB14MPS 2000 TSRA SQ BKN006 BKN035CB BECMG 2818/2820 27005MPS 5000 BR TEMPO 2820/2906 25004MPS 1200 BKN005

Trenutni satelitski snimci i slike kiše za 52.53°S 31.02°I

Marker lokacije postavljen je na 52.53°S 31.02°I. [Više]

Satelitski snimci u realnom vremenu kombinuju vidljivu svetlost tokom dana sa infracrvenim zračenjem tokom noći. Noću slika nije tamna jer infracrveno zračenje može otkriti temperaturne razlike. Nažalost, niski oblaci i magla teško se mogu razlikovati od temperature zemlje tako da mogu biti skoro nevidljivi tokom noći. Meteosat satelitski snimci za Evropu se ažuriraju u realnom vremenu na svakih 5 minuta. Slnimci GOES-16/GOES-17 (Severna i Južna Amerika) and Himawari (Azia) ažuriraju se na svakih 10 minuta.

Autorsko pravo 2021 EUMETSAT / meteoblue. / Autorsko pravo 2021 meteoblue

Radar i padavine kratka prognoza za 52.53°S 31.02°I

Rominjati
Svjetlo
Umjereno
Teška
Vrlo teško
Zdravo

Marker lokacije postavljen je na 52.53°S 31.02°I. Ova animacija prikazuje radar padavina za poslednji sat, kao i 1h prognozu. Moguće je da rominjanje i slab sneg ne budu vidljivi na ovom radaru. Intezitet padavina je predstavljen bojama koje varijaju od svetlo plave do jako ljubičaste.